Airfield :
LOGIN :

Register | Disclaimer

   EN    FR    IT 

 










Legend :    VFR   Marginal VFR   IFR   Intensive IFR   Very Intensive IFR
Visi :
Ceiling :
>= 8 km
>= 3000ft
5 to 8 km
1000 to 3000 ft
1500m to 5 km
500 to 1000 ft
800 to 1500m
200 to 500 ft
< 800m
< 200 ft
Symbols :   Thunderstorms  Fog  Heavy snow  Heavy precipitations  Wind > 20 kt
SIGMETs :     Misc.  Thunderstorms  Icing  Turbulence  Mountain Waves  Volcanic Ashes







- Airport Elevation : 157 ft
- IATA code : LIL
- Download approach charts


LFQQ - Lille Lesquin

CURRENT METAR :
  • 160030Z AUTO 18003KT 9999 FEW035 SCT110 16/13 Q1018 TEMPO BKN010

EXPIRED METARs :
  • 160000Z AUTO 20003KT 9999 BKN034 BKN110 BKN130 16/13 Q1018 TEMPO BKN010
  • 152330Z AUTO 17003KT 9999 BKN032 BKN096 BKN120 16/13 Q1018 TEMPO BKN010
  • 152300Z AUTO 18004KT CAVOK 16/13 Q1018 TEMPO 25010KT
  • 152230Z AUTO 22004KT CAVOK 17/14 Q1018 NOSIG
  • 152200Z AUTO 19004KT CAVOK 17/13 Q1018 BECMG 25010KT

TAF TAF LFQQ
Valid from the 16 at 00:00 until the 17 at 06:00 UTC


152300Z 1600/1706 20005KT 9999 SCT030
TEMPO 1601/1605 BKN010
BECMG 1612/1615 26012KT
TEMPO 1617/1623 4000 SHRA BKN040CB
PROB30
TEMPO 1618/1623 TSRA
ATIS : +33 3 20 16 19 54
No reported NOTAMs for that airfield.



MET'MAP, your aeronautical weather chart ! - Copyright ORBIFLY December 2007 - Disclaimer

ORBIFLY MET'MAP TEAM :

Programming & Development : Alexandra Zaïnal
Concept & Development : Baudouin d'Aumeries
Co-Development & Prog : Marc-Olivier Méhu
Technical & hardware support : Manuel Goepfert

Contact : metmap@orbifly.com




SOURCES & CREDITS :

   NOAA